• Join FlightAware (Why Join?)
  • Login
  • US Flag 
Rudolph Flight #1: Scheduled 
07:56PM EST


 

Airport Tracker/Info


-or-


 

Live Flight TrackerFlight Track Log ✈ N173AA ✈ 14-Apr-2013 ✈ KISM - KPGV

Flight Track Log - Related Links

Times and Time Zones

All times are in EDT time to prevent confusion due to time zone crossing. See the N173AA flight status page for this flight to view local times or setup timezone preferences in your user account.

Time Position Orientation Groundspeed Altitude Reporting Facility
EDT Latitude Longitude Course Direction KTS MPH feet Rate Location/Type
10:46PM 28.3167 -81.4833 291° West 160 184 1,900  Level Orlando TRACON
10:47PM 28.3333 -81.5333 291° West 166 191 2,300 720 Climbing Orlando TRACON
10:48PM 28.3333 -81.5667 270° West 161 185 3,200 1,320 Climbing Orlando TRACON
10:49PM 28.3833 -81.6167 319° Northwest 203 234 5,000 1,680 Climbing Orlando TRACON
10:50PM 28.4333 -81.6000 16° North 220 253 6,800 1,740 Climbing Orlando TRACON
10:51PM 28.5000 -81.5833 12° North 231 266 8,400 1,560 Climbing Orlando TRACON
10:53PM 28.6106 -81.5683 North 250 288 11,200 1,500 Climbing Jacksonville Center
10:54PM 28.6772 -81.5581 North 250 288 12,700 1,560 Climbing Jacksonville Center
10:55PM 28.7483 -81.5617 357° North 250 288 14,400 1,680 Climbing Jacksonville Center
10:56PM 28.8172 -81.5608 North 250 288 16,100 1,680 Climbing Jacksonville Center
10:57PM 28.8900 -81.5597 North 255 293 17,800 1,680 Climbing Jacksonville Center
10:58PM 28.9589 -81.5614 359° North 249 287 19,500 1,620 Climbing Jacksonville Center
10:59PM 29.0281 -81.5650 357° North 249 287 21,100 1,200 Climbing Jacksonville Center
11:00PM 29.0969 -81.5736 354° North 249 287 22,000 900 Climbing Jacksonville Center
11:01PM 29.1742 -81.5822 354° North 260 299 22,900 1,020 Climbing Jacksonville Center
11:02PM 29.2578 -81.5953 352° North 265 305 24,100 1,020 Climbing Jacksonville Center
11:03PM 29.3372 -81.6061 353° North 277 319 25,000 420 Climbing Jacksonville Center
11:04PM 29.4250 -81.6194 352° North 293 337 25,000  Level Jacksonville Center
11:05PM 29.5192 -81.6325 353° North 319 367 25,000  Level Jacksonville Center
11:06PM 29.6172 -81.6242 North 336 387 25,000 300 Level Jacksonville Center
11:07PM 29.7150 -81.5989 13° North 353 406 25,700 780 Climbing Jacksonville Center
11:08PM 29.8067 -81.5808 10° North 348 400 26,600 600 Climbing Jacksonville Center
11:09PM 29.9028 -81.5700 North 343 395 27,000 180 Climbing Jacksonville Center
11:10PM 30.0006 -81.5542 North 343 395 27,000  Level Jacksonville Center
11:11PM 30.1006 -81.5408 North 354 407 27,000  Level Jacksonville Center
11:12PM 30.2050 -81.5275 North 359 413 27,000 240 Level Jacksonville Center
11:13PM 30.3050 -81.5117 North 365 420 27,500 780 Climbing Jacksonville Center
11:14PM 30.4031 -81.4981 North 365 420 28,600 720 Climbing Jacksonville Center
11:15PM 30.4967 -81.4847 North 351 404 29,000 180 Climbing Jacksonville Center
11:16PM 30.5864 -81.4808 North 346 398 29,000  Level Jacksonville Center
11:17PM 30.6867 -81.4819 359° North 351 404 29,000  Level Jacksonville Center
11:18PM 30.7911 -81.4706 North 359 413 29,000 240 Level Jacksonville Center
11:19PM 30.8953 -81.4642 North 365 420 29,500 540 Climbing Jacksonville Center
11:20PM 30.9956 -81.4556 North 365 420 30,100 600 Climbing Jacksonville Center
11:21PM 31.0956 -81.4489 North 365 420 30,800 420 Climbing Jacksonville Center
11:22PM 31.1978 -81.4403 North 360 414 31,000 720 Climbing Jacksonville Center
11:23PM 31.2936 -81.4289 North 359 413 32,300 1,080 Climbing Jacksonville Center
11:24PM 31.3914 -81.3933 17° North 335 386 33,200 780 Climbing Jacksonville Center
11:25PM 31.4831 -81.3675 14° North 330 380 33,900 600 Climbing Jacksonville Center
11:26PM 31.5575 -81.3200 29° Northeast 335 386 34,500 540 Climbing Jacksonville Center
11:27PM 31.6422 -81.2453 37° Northeast 341 392 35,000 240 Climbing Jacksonville Center
11:28PM 31.7208 -81.1831 34° Northeast 355 409 35,000  Level Jacksonville Center
11:29PM 31.8114 -81.1031 37° Northeast 367 422 35,000  Level Jacksonville Center
11:30PM 31.8894 -81.0158 43° Northeast 378 435 35,000  Level Jacksonville Center
11:31PM 31.9656 -80.9408 40° Northeast 384 442 35,000  Level Jacksonville Center
11:32PM 32.0561 -80.8483 41° Northeast 391 450 35,000  Level Jacksonville Center
11:33PM 32.1342 -80.7706 40° Northeast 396 456 35,000  Level Jacksonville Center
11:34PM 32.2203 -80.6850 40° Northeast 401 461 35,000  Level Jacksonville Center
11:35PM 32.3067 -80.6017 39° Northeast 401 461 35,000  Level Jacksonville Center
11:36PM 32.3906 -80.5111 42° Northeast 401 461 35,000  Level Jacksonville Center
11:37PM 32.4764 -80.4225 41° Northeast 406 467 35,000  Level Jacksonville Center
11:38PM 32.5644 -80.3314 41° Northeast 406 467 35,000  Level Jacksonville Center
11:39PM 32.6436 -80.2281 48° Northeast 406 467 35,000  Level Jacksonville Center
11:40PM 32.7103 -80.1200 54° Northeast 406 467 35,000  Level Jacksonville Center
11:41PM 32.7831 -80.0092 52° Northeast 416 479 35,000  Level Jacksonville Center
11:42PM 32.8575 -79.9003 51° Northeast 421 484 35,000  Level Jacksonville Center
11:43PM 32.9408 -79.7986 46° Northeast 421 484 35,000  Level Jacksonville Center
11:44PM 33.0303 -79.7064 41° Northeast 421 484 35,000  Level Jacksonville Center
11:45PM 33.1175 -79.6089 43° Northeast 421 484 35,000  Level Jacksonville Center
11:46PM 33.2047 -79.5089 44° Northeast 421 484 35,000 60 Level Jacksonville Center
11:47PM 33.2875 -79.4064 46° Northeast 426 490 35,200 360 Climbing Jacksonville Center
11:48PM 33.3619 -79.3092 47° Northeast 410 472 35,800 -60 Climbing Jacksonville Center
11:49PM 33.4406 -79.2136 45° Northeast 396 456 35,100 -780 Descending Jacksonville Center
11:50PM 33.5342 -79.1328 36° Northeast 401 461 34,300 -1,320 Descending Jacksonville Center
11:53PM 33.7744 -78.9417 33° Northeast 401 461 30,600 -1,440 Descending Washington Center
11:54PM 33.8642 -78.8653 35° Northeast 401 461 29,400 -1,020 Descending Washington Center
11:55PM 33.9558 -78.7964 32° Northeast 396 456 28,600 -720 Descending Washington Center
11:56PM 34.0431 -78.7272 33° Northeast 386 444 28,000 -840 Descending Washington Center
11:57PM 34.1325 -78.6578 33° Northeast 380 437 27,000 -1,080 Descending Washington Center
11:58PM 34.2219 -78.5831 35° Northeast 380 437 25,900 -1,080 Descending Washington Center
11:59PM 34.3117 -78.5061 35° Northeast 385 443 24,900 -1,140 Descending Washington Center
12:00AM 34.4008 -78.4361 33° Northeast 385 443 23,700 -1,140 Descending Washington Center
12:01AM 34.4861 -78.3636 35° Northeast 385 443 22,700 -1,140 Descending Washington Center
12:02AM 34.5733 -78.2908 34° Northeast 385 443 21,500 -1,200 Descending Washington Center
12:03AM 34.6583 -78.2206 34° Northeast 380 437 20,400 -1,260 Descending Washington Center
12:04AM 34.7411 -78.1547 33° Northeast 374 430 19,000 -1,200 Descending Washington Center
12:05AM 34.8114 -78.0914 36° Northeast 363 418 18,100 -1,140 Descending Washington Center
12:06AM 34.8900 -78.0203 37° Northeast 357 411 16,800 -1,500 Descending Washington Center
12:07AM 34.9642 -77.9567 35° Northeast 345 397 15,200 -1,560 Descending Washington Center
12:08AM 35.0406 -77.8903 35° Northeast 345 397 13,700 -1,680 Descending Washington Center
12:09AM 35.1169 -77.8292 33° Northeast 334 384 11,900 -1,620 Descending Washington Center
12:10AM 35.1889 -77.7778 30° Northeast 320 368 10,500 -1,200 Descending Washington Center
12:11AM 35.2544 -77.7261 33° Northeast 295 339 9,600 -1,020 Descending Washington Center
12:12AM 35.3056 -77.6714 41° Northeast 268 308 8,500 -1,140 Descending Washington Center